Time;durP1;ratioP1;P1;durP2;ratioP2;P2;SDS_P1;SDS_P2;PMS_P1;PMS_P2;Temp;Humidity;BMP_temperature;BMP_pressure;BME280_temperature;BME280_humidity;BME280_pressure;Samples;Min_cycle;Max_cycle;Signal;HPM_P1;HPM_P2
2022/07/23 00:00:44;;;;;;;;;;;;;;;24.17;53.64;101262.88;4919613;29;4225;-69
2022/07/23 00:03:11;;;;;;;;;;;;;;;24.17;53.63;101249.16;4916544;29;4216;-69
2022/07/23 00:05:37;;;;;;;;;;;;;;;24.17;53.57;101260.72;4915731;29;4249;-69
2022/07/23 00:08:04;;;;;;;;;;;;;;;24.15;53.63;101251.22;4916873;29;4303;-71
2022/07/23 00:10:34;;;;;;;;;;;;;;;24.15;53.46;101257.75;4913553;29;4241;-70
2022/07/23 00:13:00;;;;;;;;;;;;;;;24.12;53.53;101255.44;4916443;29;4547;-70
2022/07/23 00:15:27;;;;;;;;;;;;;;;24.14;53.53;101250.47;4915324;29;4091;-70
2022/07/23 00:17:53;;;;;;;;;;;;;;;24.13;53.57;101249.00;4916738;29;4256;-70
2022/07/23 00:20:20;;;;;;;;;;;;;;;24.11;53.48;101251.81;4915708;29;4233;-70
2022/07/23 00:22:50;;;;;;;;;;;;;;;24.11;53.41;101246.03;4915827;29;4274;-72
2022/07/23 00:25:17;;;;;;;;;;;;;;;24.12;53.55;101235.94;4916689;29;5442;-70
2022/07/23 00:27:58;;;;;;;;;;;;;;;24.12;53.42;101247.53;4917499;29;5357;-71
2022/07/23 00:30:25;;;;;;;;;;;;;;;24.11;53.23;101257.59;4913194;29;4185;-70
2022/07/23 00:32:52;;;;;;;;;;;;;;;24.10;53.41;101253.22;4900264;29;4322;-70
2022/07/23 00:35:22;;;;;;;;;;;;;;;24.10;53.69;101243.78;4898376;29;6811;-70
2022/07/23 00:37:48;;;;;;;;;;;;;;;24.11;53.28;101240.25;4895290;29;4285;-70
2022/07/23 00:40:15;;;;;;;;;;;;;;;24.09;53.46;101237.28;4910619;29;5665;-70
2022/07/23 00:42:42;;;;;;;;;;;;;;;24.10;53.46;101243.78;4915672;29;4292;-69
2022/07/23 00:45:08;;;;;;;;;;;;;;;24.10;53.47;101250.34;4903236;29;4456;-71
2022/07/23 00:47:35;;;;;;;;;;;;;;;24.10;53.53;101259.03;4902362;29;4287;-71
2022/07/23 00:50:03;;;;;;;;;;;;;;;24.10;53.33;101267.69;4916643;29;4216;-70
2022/07/23 00:52:29;;;;;;;;;;;;;;;24.08;53.34;101264.72;4915219;29;4257;-71
2022/07/23 00:54:56;;;;;;;;;;;;;;;24.09;53.40;101269.09;4914603;29;4267;-70
2022/07/23 00:57:22;;;;;;;;;;;;;;;24.09;53.75;101260.41;4918198;29;4306;-70
2022/07/23 00:59:54;;;;;;;;;;;;;;;24.09;53.27;101260.41;4901911;29;4275;-71
2022/07/23 01:02:20;;;;;;;;;;;;;;;24.10;53.67;101261.91;4902933;29;5529;-70
2022/07/23 01:04:47;;;;;;;;;;;;;;;24.09;53.50;101251.72;4915802;29;4181;-70
2022/07/23 01:07:13;;;;;;;;;;;;;;;24.09;53.60;101251.72;4913898;29;4188;-71
2022/07/23 01:09:39;;;;;;;;;;;;;;;24.07;53.25;101245.88;4914080;29;4115;-70
2022/07/23 01:12:06;;;;;;;;;;;;;;;24.08;53.39;101244.47;4917433;29;6315;-71
2022/07/23 01:14:32;;;;;;;;;;;;;;;24.06;53.51;101244.41;4900553;29;5233;-70
2022/07/23 01:17:14;;;;;;;;;;;;;;;24.04;53.61;101247.22;4914154;29;5291;-69
2022/07/23 01:19:41;;;;;;;;;;;;;;;24.04;53.53;101247.94;4911172;29;5272;-70
2022/07/23 01:22:07;;;;;;;;;;;;;;;24.05;53.42;101237.13;4898121;29;5231;-69
2022/07/23 01:24:34;;;;;;;;;;;;;;;24.04;53.47;101241.44;4902661;29;5357;-70
2022/07/23 01:27:04;;;;;;;;;;;;;;;24.02;53.34;101233.41;4896348;29;4271;-70
2022/07/23 01:29:33;;;;;;;;;;;;;;;24.03;53.56;101229.13;4912555;29;5430;-70
2022/07/23 01:32:03;;;;;;;;;;;;;;;24.02;53.29;101233.41;4895199;29;4216;-70
2022/07/23 01:34:30;;;;;;;;;;;;;;;24.03;53.25;101225.50;4900642;29;4315;-70
2022/07/23 01:36:56;;;;;;;;;;;;;;;24.03;53.33;101234.91;4892068;29;4184;-70
2022/07/23 01:39:22;;;;;;;;;;;;;;;24.02;53.28;101221.09;4890683;29;4238;-70
2022/07/23 01:41:50;;;;;;;;;;;;;;;24.02;53.37;101215.31;4897932;29;4269;-69
2022/07/23 01:44:18;;;;;;;;;;;;;;;24.00;53.33;101226.81;4896973;29;4224;-70
2022/07/23 01:46:45;;;;;;;;;;;;;;;24.01;53.10;101231.94;4896399;29;4325;-69
2022/07/23 01:49:11;;;;;;;;;;;;;;;24.02;53.21;101227.63;4901973;29;5322;-70
2022/07/23 01:52:16;;;;;;;;;;;;;;;24.02;53.19;101232.66;4915270;29;4533;-70
2022/07/23 01:54:45;;;;;;;;;;;;;;;24.00;53.35;101223.91;4913274;29;5451;-70
2022/07/23 01:57:12;;;;;;;;;;;;;;;24.00;52.92;101218.13;4905393;29;4285;-69
2022/07/23 01:59:39;;;;;;;;;;;;;;;24.01;53.07;101225.41;4901069;29;4138;-71
2022/07/23 02:02:06;;;;;;;;;;;;;;;24.00;53.03;101218.13;4890652;29;4243;-70
2022/07/23 02:04:36;;;;;;;;;;;;;;;24.00;52.91;101212.34;4914064;29;4250;-70
2022/07/23 02:07:02;;;;;;;;;;;;;;;23.97;53.07;101205.00;4911538;29;4262;-70
2022/07/23 02:09:29;;;;;;;;;;;;;;;23.97;53.00;101202.13;4915081;29;4276;-69
2022/07/23 02:11:55;;;;;;;;;;;;;;;23.97;52.99;101197.06;4897618;29;5600;-70
2022/07/23 02:14:22;;;;;;;;;;;;;;;23.99;53.13;101210.88;4901005;29;4306;-69
2022/07/23 02:16:48;;;;;;;;;;;;;;;24.01;52.72;101205.91;4913192;29;4214;-69
2022/07/23 02:19:14;;;;;;;;;;;;;;;23.97;52.96;101202.84;4915196;29;4205;-70
2022/07/23 02:21:41;;;;;;;;;;;;;;;23.97;52.94;101207.91;4912194;29;4168;-70
2022/07/23 02:24:07;;;;;;;;;;;;;;;23.95;53.01;101205.66;4912113;29;4422;-70
2022/07/23 02:26:34;;;;;;;;;;;;;;;23.96;52.85;101207.16;4916691;29;5448;-70
2022/07/23 02:29:04;;;;;;;;;;;;;;;23.96;52.70;101200.63;4903542;29;4274;-70
2022/07/23 02:31:31;;;;;;;;;;;;;;;23.96;52.99;101212.19;4897373;29;4253;-71
2022/07/23 02:33:57;;;;;;;;;;;;;;;23.96;52.87;101200.63;4897764;29;4199;-70
2022/07/23 02:36:24;;;;;;;;;;;;;;;23.96;52.70;101203.50;4911477;29;4210;-71
2022/07/23 02:38:52;;;;;;;;;;;;;;;23.95;52.74;101207.81;4902848;29;4096;-70
2022/07/23 02:41:18;;;;;;;;;;;;;;;23.94;52.73;101200.56;4895234;29;5513;-70
2022/07/23 02:43:45;;;;;;;;;;;;;;;23.94;52.54;101209.25;4902130;29;4290;-70
2022/07/23 02:46:12;;;;;;;;;;;;;;;23.94;52.38;101220.81;4900244;29;5467;-70
2022/07/23 02:48:39;;;;;;;;;;;;;;;23.93;52.60;101219.31;4900287;29;4114;-71
2022/07/23 02:51:07;;;;;;;;;;;;;;;23.93;52.54;101216.41;4916246;29;4303;-70
2022/07/23 02:53:42;;;;;;;;;;;;;;;23.93;52.34;101216.41;4898439;29;4604;-69
2022/07/23 02:56:09;;;;;;;;;;;;;;;23.92;52.25;101214.94;4899843;29;4181;-70
2022/07/23 02:58:35;;;;;;;;;;;;;;;23.92;52.18;101209.16;4916436;29;4270;-69
2022/07/23 03:01:02;;;;;;;;;;;;;;;23.90;52.26;101204.03;4903305;29;5319;-70
2022/07/23 03:03:28;;;;;;;;;;;;;;;23.91;52.09;101210.56;4898652;29;4179;-70
2022/07/23 03:05:55;;;;;;;;;;;;;;;23.89;52.45;101213.38;4895783;29;4356;-69
2022/07/23 03:08:23;;;;;;;;;;;;;;;23.87;52.12;101216.94;4911073;29;5344;-71
2022/07/23 03:10:50;;;;;;;;;;;;;;;23.90;52.35;101211.97;4906504;29;4159;-71
2022/07/23 03:13:17;;;;;;;;;;;;;;;23.89;52.04;101213.38;4906711;29;4273;-71
2022/07/23 03:15:43;;;;;;;;;;;;;;;23.89;51.96;101216.25;4915518;29;4216;-71
2022/07/23 03:18:10;;;;;;;;;;;;;;;23.88;52.05;101229.25;4896936;29;4285;-70
2022/07/23 03:20:36;;;;;;;;;;;;;;;23.87;51.97;101236.44;4900167;29;4312;-70
2022/07/23 03:23:02;;;;;;;;;;;;;;;23.88;52.06;101244.44;4898565;29;4246;-71
2022/07/23 03:25:30;;;;;;;;;;;;;;;23.86;51.85;101244.38;4896157;29;4184;-70
2022/07/23 03:27:56;;;;;;;;;;;;;;;23.85;51.94;101247.94;4884473;29;5473;-70
2022/07/23 03:30:25;;;;;;;;;;;;;;;23.81;51.79;101255.03;4896032;29;6391;-67
2022/07/23 03:32:51;;;;;;;;;;;;;;;23.74;51.69;101256.22;4912937;29;4260;-66
2022/07/23 03:39:12;;;;;;;;;;;;;;;23.59;50.90;101268.59;4907404;29;5475;-67
2022/07/23 03:41:39;;;;;;;;;;;;;;;23.52;50.87;101281.31;4919957;29;4193;-66
2022/07/23 03:44:06;;;;;;;;;;;;;;;23.52;50.45;101282.06;4906293;29;4260;-66
2022/07/23 03:46:32;;;;;;;;;;;;;;;23.51;50.28;101279.84;4914080;29;4316;-66
2022/07/23 03:48:59;;;;;;;;;;;;;;;23.43;50.22;101274.47;4892787;29;4143;-66
2022/07/23 03:51:26;;;;;;;;;;;;;;;23.44;50.34;101272.34;4917694;29;4221;-66
2022/07/23 03:53:52;;;;;;;;;;;;;;;23.39;50.18;101251.94;4898398;29;4335;-66
2022/07/23 03:56:19;;;;;;;;;;;;;;;23.37;50.37;101243.19;4896883;29;4421;-67
2022/07/23 03:58:45;;;;;;;;;;;;;;;23.30;50.51;101227.00;4915333;29;4510;-67
2022/07/23 04:01:12;;;;;;;;;;;;;;;23.27;50.80;101237.00;4918818;29;4174;-66
2022/07/23 04:03:38;;;;;;;;;;;;;;;23.23;51.33;101244.75;4910521;29;5403;-66
2022/07/23 04:06:05;;;;;;;;;;;;;;;23.21;51.15;101213.66;4918391;29;4212;-66
2022/07/23 04:08:31;;;;;;;;;;;;;;;23.20;51.39;101221.59;4914688;29;5503;-66
2022/07/23 04:10:59;;;;;;;;;;;;;;;23.12;52.05;101232.06;4913437;29;4536;-66
2022/07/23 04:13:25;;;;;;;;;;;;;;;23.10;52.26;101208.88;4906238;29;4274;-66
2022/07/23 04:15:52;;;;;;;;;;;;;;;22.92;53.42;101203.78;4916810;29;4058;-66
2022/07/23 04:18:20;;;;;;;;;;;;;;;22.86;53.67;101194.88;4897387;29;4083;-67
2022/07/23 04:20:55;;;;;;;;;;;;;;;22.94;53.64;101203.88;4900458;29;4361;-66
2022/07/23 04:23:21;;;;;;;;;;;;;;;22.93;53.87;101230.50;4898063;29;4252;-66
2022/07/23 04:25:48;;;;;;;;;;;;;;;22.97;53.87;101248.00;4911370;29;4287;-66
2022/07/23 04:28:15;;;;;;;;;;;;;;;23.02;54.37;101266.28;4916725;29;4266;-66
2022/07/23 04:30:41;;;;;;;;;;;;;;;22.95;54.38;101263.13;4913557;29;4127;-67
2022/07/23 04:33:09;;;;;;;;;;;;;;;22.96;54.41;101249.44;4903312;29;4234;-66
2022/07/23 04:35:37;;;;;;;;;;;;;;;22.95;54.53;101245.81;4897083;29;4386;-66
2022/07/23 04:38:13;;;;;;;;;;;;;;;22.93;54.73;101228.38;4899177;29;6047;-66
2022/07/23 04:40:40;;;;;;;;;;;;;;;22.86;55.07;101263.44;4914848;29;4115;-66
2022/07/23 04:43:06;;;;;;;;;;;;;;;22.86;54.90;101269.19;4901289;29;4212;-66
2022/07/23 04:45:39;;;;;;;;;;;;;;;22.78;55.20;101267.47;4905273;29;4336;-66
2022/07/23 04:48:05;;;;;;;;;;;;;;;22.78;55.46;101266.72;4901839;29;4011;-66
2022/07/23 04:50:32;;;;;;;;;;;;;;;22.80;55.89;101255.25;4898079;29;4226;-66
2022/07/23 04:52:58;;;;;;;;;;;;;;;22.83;55.39;101262.59;4917425;29;4268;-66
2022/07/23 04:55:24;;;;;;;;;;;;;;;22.76;55.43;101238.50;4902162;29;4337;-66
2022/07/23 04:57:51;;;;;;;;;;;;;;;22.74;55.95;101241.28;4908047;29;5359;-65
2022/07/23 05:00:17;;;;;;;;;;;;;;;22.70;55.85;101225.94;4914963;29;4204;-65
2022/07/23 05:02:45;;;;;;;;;;;;;;;22.72;56.18;101241.22;4898771;29;4196;-66
2022/07/23 05:05:11;;;;;;;;;;;;;;;22.64;56.34;101240.88;4917338;29;4219;-66
2022/07/23 05:07:39;;;;;;;;;;;;;;;22.57;56.80;101254.28;4901220;29;5282;-66
2022/07/23 05:10:06;;;;;;;;;;;;;;;22.59;56.93;101257.28;4901818;29;5445;-66
2022/07/23 05:12:32;;;;;;;;;;;;;;;22.64;56.82;101251.69;4918386;29;5408;-66
2022/07/23 05:14:59;;;;;;;;;;;;;;;22.64;56.48;101246.66;4899244;29;4305;-66
2022/07/23 05:17:26;;;;;;;;;;;;;;;22.65;56.73;101233.69;4918714;29;5256;-66
2022/07/23 05:19:52;;;;;;;;;;;;;;;22.62;56.77;101229.25;4901110;29;4082;-66
2022/07/23 05:22:25;;;;;;;;;;;;;;;22.57;57.06;101234.09;4903190;29;4305;-66
2022/07/23 05:24:52;;;;;;;;;;;;;;;22.58;56.97;101237.72;4914008;29;4304;-66
2022/07/23 05:27:18;;;;;;;;;;;;;;;22.59;57.23;101245.72;4909144;29;4205;-66
2022/07/23 05:29:46;;;;;;;;;;;;;;;22.60;57.15;101252.22;4901575;29;4175;-66
2022/07/23 05:32:12;;;;;;;;;;;;;;;22.55;57.35;101262.88;4919260;29;4258;-67
2022/07/23 05:34:45;;;;;;;;;;;;;;;22.64;57.28;101269.75;4907705;29;4122;-66
2022/07/23 05:37:11;;;;;;;;;;;;;;;22.48;57.70;101263.25;4905444;29;4234;-66
2022/07/23 05:39:38;;;;;;;;;;;;;;;21.83;58.91;101258.13;4894424;29;4123;-67
2022/07/23 05:42:04;;;;;;;;;;;;;;;21.63;59.77;101255.78;4898040;29;4247;-67
2022/07/23 05:44:30;;;;;;;;;;;;;;;21.48;59.85;101265.88;4913460;29;4261;-66
2022/07/23 05:47:00;;;;;;;;;;;;;;;21.50;60.59;101276.78;4897181;29;4253;-66
2022/07/23 05:49:27;;;;;;;;;;;;;;;21.42;60.83;101285.03;4914537;29;5703;-66
2022/07/23 05:52:23;;;;;;;;;;;;;;;21.33;61.25;101287.47;4907318;29;4284;-66
2022/07/23 05:55:08;;;;;;;;;;;;;;;21.29;61.89;101278.63;4919716;29;4273;-66
2022/07/23 05:57:34;;;;;;;;;;;;;;;21.41;61.56;101266.25;4915719;29;4070;-66
2022/07/23 06:00:01;;;;;;;;;;;;;;;21.27;61.94;101272.78;4909637;29;4143;-66
2022/07/23 06:02:27;;;;;;;;;;;;;;;21.30;61.45;101259.22;4916401;29;5487;-65
2022/07/23 06:04:54;;;;;;;;;;;;;;;21.31;61.42;101238.41;4917426;29;4107;-65
2022/07/23 06:07:28;;;;;;;;;;;;;;;21.32;61.48;101248.53;4907991;29;4378;-65
2022/07/23 06:10:02;;;;;;;;;;;;;;;20.98;62.87;101252.59;4919029;29;5366;-66
2022/07/23 06:12:29;;;;;;;;;;;;;;;20.99;63.28;101254.09;4904186;29;6621;-70
2022/07/23 06:14:55;;;;;;;;;;;;;;;21.20;62.97;101256.59;4922732;29;4282;-65
2022/07/23 06:17:22;;;;;;;;;;;;;;;21.08;63.27;101261.75;4901903;29;4451;-68
2022/07/23 06:19:51;;;;;;;;;;;;;;;21.51;62.01;101255.22;4919386;29;4091;-70
2022/07/23 06:22:17;;;;;;;;;;;;;;;21.88;60.53;101262.72;4916129;29;5898;-60
2022/07/23 06:24:45;;;;;;;;;;;;;;;21.94;60.99;101260.09;4904196;29;4358;-64
2022/07/23 06:27:11;;;;;;;;;;;;;;;21.93;61.78;101244.94;4921103;29;4873;-65
2022/07/23 06:29:40;;;;;;;;;;;;;;;21.95;62.00;101255.81;4898501;29;4075;-63
2022/07/23 06:32:07;;;;;;;;;;;;;;;21.95;62.39;101255.81;4920068;29;4240;-65
2022/07/23 06:34:33;;;;;;;;;;;;;;;21.99;61.83;101249.50;4916713;29;5690;-65
2022/07/23 06:36:59;;;;;;;;;;;;;;;22.13;61.57;101236.47;4921324;29;5650;-65
2022/07/23 06:39:27;;;;;;;;;;;;;;;22.23;61.02;101223.94;4922885;29;4240;-66
2022/07/23 06:41:56;;;;;;;;;;;;;;;22.28;60.72;101222.72;4904135;29;5743;-66
2022/07/23 06:44:36;;;;;;;;;;;;;;;22.32;60.11;101220.00;4905640;29;5613;-66
2022/07/23 06:47:02;;;;;;;;;;;;;;;22.35;60.10;101215.81;4904153;29;5664;-65
2022/07/23 06:49:29;;;;;;;;;;;;;;;22.38;59.58;101220.28;4920010;29;5814;-65
2022/07/23 06:51:56;;;;;;;;;;;;;;;22.42;59.75;101226.22;4919902;29;5439;-66
2022/07/23 06:54:22;;;;;;;;;;;;;;;22.44;59.63;101225.56;4912177;29;4243;-65
2022/07/23 06:56:49;;;;;;;;;;;;;;;22.47;59.44;101222.13;4922525;29;4152;-65
2022/07/23 06:59:16;;;;;;;;;;;;;;;22.49;59.21;101242.38;4912760;29;4222;-66
2022/07/23 07:01:42;;;;;;;;;;;;;;;22.51;59.21;101251.13;4917932;29;5366;-65
2022/07/23 07:04:08;;;;;;;;;;;;;;;22.52;59.00;101264.19;4917888;29;6575;-65
2022/07/23 07:06:35;;;;;;;;;;;;;;;22.54;58.90;101255.63;4919886;29;4243;-66
2022/07/23 07:09:01;;;;;;;;;;;;;;;22.54;59.14;101275.81;4921441;29;5833;-66
2022/07/23 07:11:28;;;;;;;;;;;;;;;22.56;58.81;101270.13;4918703;29;4202;-65
2022/07/23 07:13:54;;;;;;;;;;;;;;;22.57;59.06;101288.19;4921460;29;5184;-66
2022/07/23 07:16:21;;;;;;;;;;;;;;;22.59;58.74;101286.13;4921289;29;4283;-66
2022/07/23 07:18:47;;;;;;;;;;;;;;;22.61;58.96;101287.63;4918135;29;4289;-65
2022/07/23 07:21:14;;;;;;;;;;;;;;;22.62;58.93;101277.56;4919628;29;5655;-66
2022/07/23 07:23:40;;;;;;;;;;;;;;;22.63;58.83;101271.16;4918027;29;5723;-66
2022/07/23 07:26:06;;;;;;;;;;;;;;;22.64;58.76;101275.50;4920076;29;5573;-66
2022/07/23 07:28:33;;;;;;;;;;;;;;;22.64;58.39;101283.44;4921332;29;4315;-66
2022/07/23 07:30:59;;;;;;;;;;;;;;;22.66;58.47;101269.09;4917801;29;5530;-66
2022/07/23 07:33:26;;;;;;;;;;;;;;;22.67;58.57;101273.44;4920448;29;4338;-66
2022/07/23 07:35:52;;;;;;;;;;;;;;;22.68;58.09;101277.84;4918317;29;4102;-65
2022/07/23 07:38:18;;;;;;;;;;;;;;;22.70;58.27;101266.34;4918569;29;6653;-66
2022/07/23 07:40:45;;;;;;;;;;;;;;;22.71;58.18;101268.59;4918131;29;5684;-65
2022/07/23 07:43:11;;;;;;;;;;;;;;;22.72;58.44;101263.56;4918743;29;5609;-65
2022/07/23 07:45:37;;;;;;;;;;;;;;;22.73;58.37;101253.53;4920725;29;5354;-66
2022/07/23 07:48:04;;;;;;;;;;;;;;;22.74;58.05;101249.22;4915846;29;4214;-66
2022/07/23 07:50:30;;;;;;;;;;;;;;;22.76;58.01;101237.75;4918391;29;4407;-65
2022/07/23 07:52:57;;;;;;;;;;;;;;;22.76;58.06;101235.59;4920791;29;4176;-65
2022/07/23 07:55:23;;;;;;;;;;;;;;;22.78;58.12;101246.50;4920359;29;5639;-66
2022/07/23 07:57:50;;;;;;;;;;;;;;;22.79;57.92;101245.09;4921082;29;4226;-65
2022/07/23 08:00:16;;;;;;;;;;;;;;;22.79;57.93;101251.63;4919978;29;4748;-66
2022/07/23 08:02:43;;;;;;;;;;;;;;;22.80;57.78;101252.38;4919042;29;4370;-66
2022/07/23 08:05:10;;;;;;;;;;;;;;;22.78;57.93;101250.13;4916968;29;5663;-66
2022/07/23 08:07:38;;;;;;;;;;;;;;;22.82;57.66;101251.72;4920423;29;4090;-66
2022/07/23 08:10:05;;;;;;;;;;;;;;;22.84;57.70;101254.69;4919026;29;5408;-66
2022/07/23 08:12:45;;;;;;;;;;;;;;;22.85;57.61;101250.41;4920643;29;4256;-66
2022/07/23 08:15:14;;;;;;;;;;;;;;;22.85;57.66;101256.19;4916697;29;5694;-66
2022/07/23 08:17:42;;;;;;;;;;;;;;;22.85;57.52;101256.91;4919797;29;4816;-66
2022/07/23 08:20:08;;;;;;;;;;;;;;;22.86;57.58;101254.75;4917412;29;5569;-66
2022/07/23 08:22:49;;;;;;;;;;;;;;;22.88;57.38;101258.47;4918892;29;4247;-65
2022/07/23 08:25:16;;;;;;;;;;;;;;;22.87;57.49;101262.78;4920064;29;4219;-66
2022/07/23 08:27:42;;;;;;;;;;;;;;;22.88;57.33;101258.47;4919657;29;5271;-66
2022/07/23 08:30:08;;;;;;;;;;;;;;;22.89;57.27;101251.31;4918301;29;4267;-66
2022/07/23 08:32:51;;;;;;;;;;;;;;;22.90;57.30;101258.56;4918661;29;5694;-66
2022/07/23 08:35:17;;;;;;;;;;;;;;;22.90;57.33;101261.44;4920648;29;4891;-66
2022/07/23 08:37:44;;;;;;;;;;;;;;;22.91;57.20;101248.50;4918343;29;5667;-66
2022/07/23 08:40:10;;;;;;;;;;;;;;;22.92;57.21;101241.31;4916967;29;5498;-66
2022/07/23 08:42:37;;;;;;;;;;;;;;;22.93;57.45;101239.94;4919017;29;4390;-66
2022/07/23 08:45:03;;;;;;;;;;;;;;;22.94;57.18;101232.75;4902523;29;5657;-66
2022/07/23 08:47:29;;;;;;;;;;;;;;;22.94;57.45;101238.53;4920411;29;5719;-66
2022/07/23 08:49:56;;;;;;;;;;;;;;;22.95;57.31;101240.03;4921042;29;4262;-65
2022/07/23 08:52:22;;;;;;;;;;;;;;;22.97;57.41;101230.69;4918695;29;4272;-66
2022/07/23 08:54:53;;;;;;;;;;;;;;;22.96;57.01;101235.72;4919269;29;4309;-66
2022/07/23 08:57:19;;;;;;;;;;;;;;;22.98;57.06;101238.69;4917586;29;4278;-66
2022/07/23 08:59:45;;;;;;;;;;;;;;;22.98;57.24;101247.38;4917693;29;5578;-66
2022/07/23 09:02:12;;;;;;;;;;;;;;;22.98;57.08;101256.03;4919300;29;5474;-66
2022/07/23 09:04:38;;;;;;;;;;;;;;;23.00;57.36;101258.31;4918368;29;5684;-66
2022/07/23 09:07:05;;;;;;;;;;;;;;;23.00;56.93;101264.81;4901561;29;5552;-66
2022/07/23 09:09:31;;;;;;;;;;;;;;;23.04;56.90;101269.25;4915847;29;4629;-63
2022/07/23 09:12:03;;;;;;;;;;;;;;;23.04;56.99;101275.03;4912518;29;5842;-67
2022/07/23 09:14:36;;;;;;;;;;;;;;;22.40;58.76;101262.88;4914343;29;5867;-68
2022/07/23 09:17:13;;;;;;;;;;;;;;;22.18;59.11;101272.75;4916106;29;5569;-69
2022/07/23 09:19:40;;;;;;;;;;;;;;;22.29;59.40;101271.09;4918359;29;5576;-68
2022/07/23 09:22:22;;;;;;;;;;;;;;;22.42;59.70;101278.16;4916329;29;5768;-61
2022/07/23 09:25:13;;;;;;;;;;;;;;;22.27;59.80;101285.44;4915723;29;5325;-59
2022/07/23 09:27:46;;;;;;;;;;;;;;;21.70;60.90;101292.16;4916402;29;4232;-61
2022/07/23 09:30:20;;;;;;;;;;;;;;;21.75;60.57;101296.72;4915024;29;5484;-60
2022/07/23 09:33:06;;;;;;;;;;;;;;;21.86;60.20;101291.44;4910563;29;4254;-60
2022/07/23 09:35:45;;;;;;;;;;;;;;;21.71;60.24;101285.00;4915908;29;4037;-60
2022/07/23 09:38:11;;;;;;;;;;;;;;;21.73;60.48;101276.44;4910369;29;4213;-60
2022/07/23 09:40:38;;;;;;;;;;;;;;;21.47;62.99;101266.56;4916722;29;4267;-60
2022/07/23 09:43:04;;;;;;;;;;;;;;;21.90;61.25;101271.47;4913780;29;4265;-60
2022/07/23 09:45:31;;;;;;;;;;;;;;;21.95;61.10;101276.75;4906853;29;5428;-61
2022/07/23 09:48:13;;;;;;;;;;;;;;;22.02;61.15;101280.66;4910510;29;4237;-60
2022/07/23 09:50:40;;;;;;;;;;;;;;;21.94;61.00;101283.16;4920987;29;4245;-61
2022/07/23 09:53:06;;;;;;;;;;;;;;;21.80;61.43;101276.72;4922810;29;4069;-60
2022/07/23 09:55:35;;;;;;;;;;;;;;;21.52;62.12;101285.50;4922957;29;4431;-60
2022/07/23 09:58:02;;;;;;;;;;;;;;;21.81;62.16;101278.97;4917387;29;4221;-60
2022/07/23 10:00:29;;;;;;;;;;;;;;;21.62;62.28;101288.88;4920274;29;4258;-60
2022/07/23 10:02:58;;;;;;;;;;;;;;;22.10;61.20;101283.91;4919218;29;4222;-60
2022/07/23 10:05:28;;;;;;;;;;;;;;;21.81;60.30;101276.09;4909984;29;5504;-60
2022/07/23 10:08:13;;;;;;;;;;;;;;;21.88;59.80;101285.78;4916440;29;4407;-60
2022/07/23 10:11:09;;;;;;;;;;;;;;;21.55;59.42;101295.75;4918112;29;4241;-60
2022/07/23 10:13:50;;;;;;;;;;;;;;;21.60;59.40;101291.69;4914418;29;4185;-60
2022/07/23 10:16:17;;;;;;;;;;;;;;;21.65;58.19;101298.38;4898662;29;4222;-60
2022/07/23 10:18:52;;;;;;;;;;;;;;;21.37;58.48;101292.69;4917616;29;4241;-60
2022/07/23 10:21:22;;;;;;;;;;;;;;;21.36;58.45;101296.22;4909188;29;4224;-62
2022/07/23 10:23:59;;;;;;;;;;;;;;;21.98;58.15;101297.78;4905382;29;5336;-62
2022/07/23 10:26:32;;;;;;;;;;;;;;;21.99;58.48;101296.38;4914193;29;4066;-62
2022/07/23 10:29:02;;;;;;;;;;;;;;;22.25;57.56;101296.13;4904348;29;4362;-62
2022/07/23 10:32:01;;;;;;;;;;;;;;;22.27;57.40;101296.25;4903090;29;4293;-62
2022/07/23 10:34:52;;;;;;;;;;;;;;;22.17;57.52;101293.59;4877933;29;4247;-62
2022/07/23 10:37:23;;;;;;;;;;;;;;;22.09;57.16;101288.19;4911713;29;4210;-61
2022/07/23 10:40:08;;;;;;;;;;;;;;;21.91;57.08;101296.75;4921865;29;4303;-62
2022/07/23 10:42:34;;;;;;;;;;;;;;;21.69;56.35;101296.44;4917132;29;4360;-62
2022/07/23 10:45:01;;;;;;;;;;;;;;;21.95;56.36;101296.94;4918112;29;4419;-62
2022/07/23 10:47:38;;;;;;;;;;;;;;;22.12;55.89;101292.66;4909171;29;4358;-61
2022/07/23 10:50:21;;;;;;;;;;;;;;;22.06;56.17;101298.16;4916209;29;5318;-61
2022/07/23 10:53:08;;;;;;;;;;;;;;;22.23;55.50;101287.41;4921587;29;4488;-61
2022/07/23 10:55:34;;;;;;;;;;;;;;;21.94;55.68;101288.94;4918124;29;5264;-62
2022/07/23 10:58:01;;;;;;;;;;;;;;;21.84;56.29;101292.09;4915816;29;4270;-61
2022/07/23 11:00:28;;;;;;;;;;;;;;;22.11;55.87;101290.44;4916650;29;4289;-61
2022/07/23 11:02:55;;;;;;;;;;;;;;;22.29;55.32;101302.84;4921401;29;6392;-61
2022/07/23 11:05:22;;;;;;;;;;;;;;;22.16;56.12;101295.72;4922269;29;5256;-61
2022/07/23 11:08:04;;;;;;;;;;;;;;;22.38;56.00;101295.31;4918714;29;5572;-63
2022/07/23 11:10:31;;;;;;;;;;;;;;;21.84;56.60;101291.34;4919039;29;5739;-60
2022/07/23 11:13:17;;;;;;;;;;;;;;;21.90;56.92;101295.25;4912522;29;4275;-64
2022/07/23 11:16:06;;;;;;;;;;;;;;;21.82;56.47;101299.91;4915846;29;4081;-62
2022/07/23 11:18:44;;;;;;;;;;;;;;;21.79;56.32;101295.44;4916047;29;4233;-62
2022/07/23 11:21:20;;;;;;;;;;;;;;;21.97;56.46;101293.41;4918703;29;5324;-63
2022/07/23 11:23:56;;;;;;;;;;;;;;;22.11;56.12;101294.06;4921173;29;4080;-62
2022/07/23 11:26:37;;;;;;;;;;;;;;;22.25;56.37;101291.09;4919396;29;4274;-62
2022/07/23 11:29:22;;;;;;;;;;;;;;;22.29;56.38;101287.69;4907597;29;4282;-62
2022/07/23 11:31:52;;;;;;;;;;;;;;;22.00;56.55;101297.88;4915569;29;5502;-62
2022/07/23 11:34:30;;;;;;;;;;;;;;;22.16;56.92;101292.84;4919758;29;4215;-62
2022/07/23 11:36:56;;;;;;;;;;;;;;;22.24;56.66;101292.53;4911830;29;4259;-63
2022/07/23 11:39:23;;;;;;;;;;;;;;;22.19;56.36;101290.78;4921236;29;4296;-63
2022/07/23 11:41:50;;;;;;;;;;;;;;;22.39;56.04;101279.47;4915757;29;5582;-62
2022/07/23 11:44:26;;;;;;;;;;;;;;;22.50;55.58;101284.28;4917713;29;4266;-62
2022/07/23 11:46:56;;;;;;;;;;;;;;;22.54;55.71;101296.03;4917628;29;5391;-63
2022/07/23 11:49:23;;;;;;;;;;;;;;;22.49;56.30;101288.56;4919210;29;6348;-62
2022/07/23 11:52:05;;;;;;;;;;;;;;;22.57;55.31;101282.41;4921762;29;5304;-63
2022/07/23 11:54:32;;;;;;;;;;;;;;;22.50;55.86;101283.56;4919940;29;5139;-63
2022/07/23 11:57:05;;;;;;;;;;;;;;;22.41;55.90;101282.44;4899967;29;4599;-69
2022/07/23 11:59:32;;;;;;;;;;;;;;;22.34;55.70;101272.03;4910960;29;5544;-63
2022/07/23 12:02:04;;;;;;;;;;;;;;;22.35;56.02;101282.16;4917690;29;4286;-63
2022/07/23 12:04:37;;;;;;;;;;;;;;;22.51;55.29;101277.09;4918210;29;4201;-62
2022/07/23 12:07:03;;;;;;;;;;;;;;;22.62;55.24;101277.56;4915586;29;5362;-62
2022/07/23 12:09:30;;;;;;;;;;;;;;;22.47;55.29;101274.06;4915490;29;4100;-63
2022/07/23 12:12:01;;;;;;;;;;;;;;;22.45;55.28;101279.75;4898306;29;4061;-63
2022/07/23 12:14:28;;;;;;;;;;;;;;;22.55;55.08;101273.66;4902016;29;4239;-63
2022/07/23 12:17:07;;;;;;;;;;;;;;;22.33;54.50;101264.75;4915590;29;4214;-63
2022/07/23 12:19:34;;;;;;;;;;;;;;;22.54;54.37;101275.81;4918292;29;4433;-63
2022/07/23 12:22:00;;;;;;;;;;;;;;;22.62;54.17;101271.78;4901612;29;5268;-63
2022/07/23 12:24:28;;;;;;;;;;;;;;;22.73;54.17;101273.72;4918684;29;4236;-63
2022/07/23 12:27:10;;;;;;;;;;;;;;;22.72;54.92;101273.00;4917937;29;4162;-63
2022/07/23 12:29:37;;;;;;;;;;;;;;;22.55;54.84;101274.41;4916936;29;6958;-62
2022/07/23 12:32:16;;;;;;;;;;;;;;;22.70;54.74;101275.03;4916130;29;6262;-62
2022/07/23 12:34:43;;;;;;;;;;;;;;;22.75;54.32;101253.59;4907494;29;4197;-62
2022/07/23 12:37:28;;;;;;;;;;;;;;;22.76;53.93;101267.38;4918480;29;4289;-62
2022/07/23 12:39:55;;;;;;;;;;;;;;;22.85;53.40;101268.47;4919067;29;5370;-62
2022/07/23 12:42:24;;;;;;;;;;;;;;;22.70;53.54;101267.13;4918703;29;4292;-62
2022/07/23 12:45:06;;;;;;;;;;;;;;;22.72;53.96;101264.31;4917600;29;4241;-62
2022/07/23 12:47:53;;;;;;;;;;;;;;;22.72;55.00;101264.31;4918046;29;6511;-62
2022/07/23 12:50:39;;;;;;;;;;;;;;;22.59;54.67;101265.94;4912343;29;5451;-62
2022/07/23 12:53:06;;;;;;;;;;;;;;;22.62;54.66;101260.25;4918993;29;4254;-62
2022/07/23 12:55:38;;;;;;;;;;;;;;;22.47;54.58;101265.41;4918170;29;5364;-62
2022/07/23 12:58:25;;;;;;;;;;;;;;;22.65;54.40;101270.47;4914749;29;5254;-62
2022/07/23 13:01:03;;;;;;;;;;;;;;;22.72;53.75;101261.44;4917211;29;4391;-62
2022/07/23 13:03:40;;;;;;;;;;;;;;;22.84;53.87;101261.22;4916804;29;4250;-62